Tiempo atmosférico en la estación meteorológica de Madrid Aeropuerto, Madrid (609 m.)



Fecha
DESCASC
Temp. máxima en grados centígrados (hora)
DESCASC
Temp. mínima en grados centígrados (hora)
DESCASC
Temp. media en grados centígrados
DESCASC
Racha de viento máxima en m/sg (hora)
DESCASC
Velocidad máxima media en intervalos de 10 minutos(hora)
DESCASC
Precipitaciones diarias en mm
DESCASC
Precipitaciones de 00:00 a 06:00 en mm
DESCASC
Precipitaciones de 06:00 a 12:00 en mm
DESCASC
Precipitaciones de 12:00 a 18:00 en mm
DESCASC
Precipitaciones de 18:00 a 24:00 en mm
DESCASC
22-08-2019 33.1 (17:20) 15.3 (07:50) 24.2 6.67 (17:30) 3.89 (17:30) 0 0 0 0 0
21-08-2019 31.9 (17:40) 18.3 (23:40) 25.1 15.28 (22:10) 8.33 (20:40) 10.8 0 0 0 10.8
20-08-2019 31.7 (17:40) 19.8 (03:40) 25.8 11.39 (14:10) 6.39 (00:10) 0.1 0.1 0 0 0
19-08-2019 33.6 (17:00) 20.1 (07:40) 26.8 16.39 (15:30) 7.22 (15:30) 0 0 0 0 0
18-08-2019 36.6 (15:50) 16.4 (00:00) 26.5 19.72 (15:50) 9.72 (15:30) 0 0 0 0 0
17-08-2019 37.6 (17:50) 18.7 (00:00) 28.1 17.5 (16:10) 7.78 (16:00) 0 0 0 0 0
16-08-2019 36.9 (18:10) 18.9 (00:00) 27.9 12.5 (22:50) 6.11 (17:00) 0 0 0 0 0
15-08-2019 36.4 (17:50) 15.9 (00:00) 26.2 11.39 (23:59) 6.11 (23:50) 0 0 0 0 0
14-08-2019 34.1 (17:50) 14.2 (00:00) 24.1 7.22 (12:20) 4.17 (21:10) 0 0 0 0 0
13-08-2019 31 (19:40) 15.1 (00:00) 23.1 10.83 (02:50) 5.56 (03:00) 0 0 0 0 0
12-08-2019 28.7 (17:40) 14 (00:00) 21.4 11.67 (12:20) 7.78 (12:20) 0 0 0 0 0
11-08-2019 30.8 (15:50) 17.4 (00:00) 24.1 17.5 (17:50) 8.61 (17:50) 0 0 0 0 0
10-08-2019 32.6 (18:40) 19.2 (00:00) 25.9 15 (17:30) 6.39 (17:50) 0 0 0 0 0
09-08-2019 32.7 (17:40) 23.6 (00:00) 28.2 20.56 (17:40) 11.11 (18:10) 0 0 0 0 0
08-08-2019 34.7 (17:50) 17.6 (00:00) 26.2 13.89 (18:50) 8.06 (17:50) 0 0 0 0 0
07-08-2019 30.4 (00:00) 24.4 (00:00) 27.4 11.39 (15:30) 6.94 (20:00) 0 0 0 0 0
06-08-2019 36.5 (16:50) 17.5 (00:00) 27 15.28 (17:30) 7.5 (18:20) 0 0 0 0 0
05-08-2019 36.8 (17:20) 17.4 (00:00) 27.1 15 (16:30) 6.39 (17:40) 0 0 0 0 0
04-08-2019 36.6 (17:10) 17.4 (00:00) 27 15 (16:00) 6.94 (15:40) 0 0 0 0 0
03-08-2019 36.9 (17:40) 19.6 (00:00) 28.3 -- (--) -- (--) -- 0 0 -- 0
02-08-2019 36.6 (18:10) 19.8 (00:00) 28.2 11.67 (16:20) 4.72 (19:00) 0 0 0 0 0
01-08-2019 35.1 (18:30) 21.2 (00:00) 28.1 13.33 (16:00) 7.22 (18:30) 0 0 0 0 0
31-07-2019 35.1 (18:10) 17.4 (00:00) 26.2 11.39 (01:30) 6.67 (01:10) 0 0 0 0 0
30-07-2019 31.9 (18:30) 15.9 (00:00) 23.9 8.89 (22:50) 5.83 (22:50) 0 0 0 0 0
29-07-2019 33.8 (16:30) 16 (00:00) 24.9 15.28 (16:20) 8.33 (19:20) 0 0 0 0 0
28-07-2019 31 (18:50) 14.6 (00:00) 22.8 14.44 (18:50) 5.56 (18:20) 0 0 0 0 0
27-07-2019 28.8 (17:50) 20.9 (00:00) 24.8 16.94 (16:20) 10.28 (16:30) 0 0 0 0 0
26-07-2019 32.3 (16:50) 24.9 (00:00) 28.6 15.28 (12:40) 8.06 (13:50) 0 0 0 0 0

Gráficas

Temp. máximas Temp. mínimas Temp. medias Precipitaciones Rachas de viento máximas Velocidades máximas media en intervalos de 10 minutos

Datos horarios

Fecha y hora oficial Temperatura (ºC) Velocidad del viento (km/h) Dirección del viento Racha (km/h) Dirección de racha Precipitación (mm) Presión (hPa) Tendencia (hPa) Humedad (%)
2019-08-24 23:00:00 25.9 3 Norte 9 Sudoeste 0 949.4 0.7 30
2019-08-24 22:00:00 27.5 2 Sur 9 Sur 0 949 -0.2 26
2019-08-24 21:00:00 30.7 5 Sudeste 9 Sudeste 0 948.7 -0.9 20
2019-08-24 20:00:00 33.7 6 Este 13 Sudeste 0 948.7 -1.2 17
2019-08-24 19:00:00 34.8 8 Sur 18 Nordeste 0 949.2 -1.2 16
2019-08-24 18:00:00 34.5 7 Noroeste 33 Sudoeste 0 949.6 -1.5 16
2019-08-24 17:00:00 34.5 6 Sudoeste 39 Sudoeste 0 949.9 -1.9 16
2019-08-24 16:00:00 34.1 10 Sudeste 24 Sur 0 950.4 -2.1 17
2019-08-24 15:00:00 33 6 Sudeste 24 Sudoeste 0 951.1 -2 20
2019-08-24 14:00:00 31.4 8 Sur 24 Sur 0 951.8 -1.4 23
2019-08-24 13:00:00 29.7 9 Sur 22 Sur 0 952.5 -0.7 27
2019-08-24 12:00:00 27.8 7 Sur 15 Sudeste 0 953.1 0 31
2019-08-24 11:00:00 25.1 4 Noroeste 13 Noroeste 0 953.2 0.4 38
2019-08-24 10:00:00 21.4 3 Norte 8 Noroeste 0 953.2 0.5 44
2019-08-24 09:00:00 18 5 Norte 9 Noroeste 0 953.1 0.5 50
2019-08-24 08:00:00 16 8 Norte 11 Norte 0 952.8 0.3 53
2019-08-24 07:00:00 16.6 8 Norte 11 Norte 0 952.7 0.5 52
2019-08-24 06:00:00 17.1 6 Norte 11 Norte 0 952.6 0.7 54
2019-08-24 05:00:00 18.7 8 Norte 11 Norte 0 952.5 0.6 52
2019-08-24 04:00:00 20.6 5 Sudeste 9 Sur 0 952.2 0.9 43
2019-08-24 03:00:00 20.2 6 Sur 11 Sudeste 0 951.9 1.1 42
2019-08-24 02:00:00 21.4 7 Sudeste 15 Sudeste 0 951.9 1.4 45
2019-08-24 01:00:00 21.6 3 Noroeste 13 Norte 0 951.3 1 41
2019-08-24 00:00:00 23.2 8 Norte 11 Norte 0 950.8 0.8 39
2019-08-23 23:00:00 24.5 3 Nordeste 8 Este 0 950.5 0.6 34
2019-08-23 22:00:00 26.4 3 Sur 8 Sur 0 950.3 0 27
2019-08-23 21:00:00 29.4 2 Sudeste 11 Sur 0 950 -0.7 23
2019-08-23 20:00:00 32.2 7 Este 13 Este 0 949.9 -1.2 18
2019-08-23 19:00:00 32.8 5 Norte 24 Sur 0 950.3 -1.1 17
2019-08-23 18:00:00 33 9 Sur 26 Sudoeste 0 950.7 -1.4 19
2019-08-23 17:00:00 32.7 5 Oeste 18 Oeste 0 951.1 -1.9 17
2019-08-23 16:00:00 32.2 8 Oeste 21 Oeste 0 951.4 -2.3 20
2019-08-23 15:00:00 31.3 9 Sudeste 15 Sur 0 952.1 -2 26
2019-08-23 14:00:00 30.2 10 Sudeste 17 Sudeste 0 953 -1.4 29
2019-08-23 13:00:00 28.9 6 Sur 21 Sudeste 0 953.7 -0.8 32
2019-08-23 12:00:00 27.3 9 Sur 17 Sur 0 954.1 -0.4 34
2019-08-23 11:00:00 24.3 4 Norte 9 Norte 0 954.4 0.1 42
2019-08-23 10:00:00 20.6 5 Norte 9 Noroeste 0 954.5 0.7 46
2019-08-23 09:00:00 18 5 Norte 9 Norte 0 954.5 0.8 47
2019-08-23 08:00:00 16 6 Norte 9 Norte 0 954.3 0.7 53
2019-08-23 07:00:00 16.5 5 Norte 11 Norte 0 953.8 0.7 53
2019-08-23 06:00:00 17.9 8 Norte 13 Norte 0 953.7 0.9 48
2019-08-23 05:00:00 18.5 6 Norte 9 Norte 0 953.6 0.9 54
2019-08-23 04:00:00 19.3 8 Noroeste 9 Noroeste 0 953.1 0.7 54
2019-08-23 03:00:00 19.6 8 Noroeste 9 Noroeste 0 952.8 1 46
2019-08-23 02:00:00 20.3 5 Nordeste 11 Nordeste 0 952.7 1 40
2019-08-23 01:00:00 20.6 6 Noroeste 18 Norte 0 952.4 1 49
2019-08-23 00:00:00 22.4 6 Norte 9 Norte 0 951.8 0.6 41
2019-08-22 23:00:00 25.6 9 Sudeste 11 Sudeste 0 951.7 0.9 27
2019-08-22 22:00:00 25.9 5 Sudeste 13 Sur 0 951.4 0.7 26
2019-08-22 21:00:00 29.4 8 Sur 18 Sur 0 951.2 0.2 21
2019-08-22 20:00:00 31.5 7 Sur 21 Sudeste 0 950.8 -0.6 18
2019-08-22 19:00:00 32.6 4 Sur 18 Sudeste 0 950.7 -1.2 17
2019-08-22 18:00:00 32.8 10 Sudeste 24 Sudeste 0 951 -1.4 14
2019-08-22 17:00:00 32.7 9 Este 21 Este 0 951.4 -1.7 11
2019-08-22 16:00:00 32 5 Este 21 Sudeste 0 951.9 -1.9 18
2019-08-22 15:00:00 30.7 8 Este 21 Este 0 952.4 -1.8 19
2019-08-22 14:00:00 28.7 8 Este 18 Sudeste 0 953.1 -1.3 34
2019-08-22 13:00:00 26.6 9 Sudeste 17 Sur 0 953.8 -0.5 46
2019-08-22 12:00:00 24.6 7 Este 13 Este 0 954.2 0 55
2019-08-22 11:00:00 22.1 6 Este 11 Nordeste 0 954.4 0.4 67
2019-08-22 10:00:00 19.4 7 Norte 9 Nordeste 0 954.3 0.5 76
2019-08-22 09:00:00 17.2 4 Norte 11 Norte 0 954.2 0.6 86
2019-08-22 08:00:00 15.3 6 Norte 13 Norte 0 954 0 92
2019-08-22 07:00:00 16 11 Norte 15 Norte 0 953.8 0.1 92
2019-08-22 06:00:00 16.6 8 Norte 11 Noroeste 0 953.6 -0.2 94
2019-08-22 05:00:00 16.4 7 Norte 11 Nordeste 0 954 0.2 95
2019-08-22 04:00:00 16.4 2 Norte 8 Este 0 953.7 -0.3 94
2019-08-22 03:00:00 17.1 5 Este 11 Este 0 953.8 -0.4 92
2019-08-22 02:00:00 18 7 Noroeste 13 Norte 0 953.8 -0.1 92
2019-08-22 01:00:00 18 8 Norte 17 Norte 0 954 1.4 93
2019-08-22 00:00:00 18.4 12 Norte 32 Sur 2.6 954.2 3.4 91
2019-08-21 23:00:00 18.5 7 Este 55 Nordeste 8.2 953.9 4.1 87
2019-08-21 22:00:00 23.9 18 Este 41 Este 0 952.6 3 57
2019-08-21 21:00:00 25.4 22 Sur 39 Sudeste 0 950.8 0.9 48
2019-08-21 20:00:00 30.8 4 Noroeste 15 Noroeste 0 949.8 -0.5 31
2019-08-21 19:00:00 30 7 Noroeste 18 Noroeste 0 949.6 -1.2 32
2019-08-21 18:00:00 31.1 5 Noroeste 17 Noroeste 0 949.9 -1.7 33
2019-08-21 17:00:00 30.8 10 Oeste 22 Sudoeste 0 950.3 -2 36
2019-08-21 16:00:00 30.1 8 Sur 22 Sudeste 0 950.8 -2.2 39
2019-08-21 15:00:00 29.4 10 Sur 24 Sudeste 0 951.6 -1.9 41
2019-08-21 14:00:00 28.4 6 Sur 26 Oeste 0 952.3 -1.3 45
2019-08-21 13:00:00 26.3 9 Este 17 Sudeste 0 953 -0.5 51
2019-08-21 12:00:00 24 6 Nordeste 15 Nordeste 0 953.5 0 56
2019-08-21 11:00:00 22.4 8 Nordeste 15 Este 0 953.6 0.3 58
2019-08-21 10:00:00 21.7 6 Nordeste 17 Este 0 953.5 0.3 59
2019-08-21 09:00:00 21.1 6 Nordeste 13 Nordeste 0 953.5 0.3 59
2019-08-21 08:00:00 20.9 6 Nordeste 15 Nordeste 0 953.3 0 59
2019-08-21 07:00:00 20.5 6 Nordeste 17 Este 0 953.2 -0.3 59
2019-08-21 06:00:00 20.6 9 Nordeste 21 Este 0 953.2 -0.5 59
2019-08-21 05:00:00 20.4 10 Nordeste 18 Nordeste 0 953.3 -0.2 58
2019-08-21 04:00:00 20.2 10 Nordeste 17 Nordeste 0 953.5 0.3 58
2019-08-21 03:00:00 20.4 8 Nordeste 22 Nordeste 0 953.7 1 58
2019-08-21 02:00:00 21 9 Nordeste 22 Nordeste 0 953.5 1.5 56
2019-08-21 01:00:00 21.7 9 Nordeste 24 Nordeste 0 953.2 2 55
2019-08-21 00:00:00 22.8 13 Nordeste 32 Nordeste 0 952.7 2.2 53
2019-08-20 23:00:00 23.7 15 Nordeste 35 Este 0 952 2 50
2019-08-20 22:00:00 25 18 Nordeste 35 Este 0 951.2 1.4 45
2019-08-20 21:00:00 26.7 18 Nordeste 39 Nordeste 0 950.5 0.7 40
2019-08-20 20:00:00 29.1 18 Nordeste 32 Nordeste 0 950 0.1 32
2019-08-20 19:00:00 30.8 14 Nordeste 26 Norte 0 949.8 -0.6 27
2019-08-20 18:00:00 31.4 14 Norte 32 Norte 0 949.8 -1.1 26
2019-08-20 17:00:00 30.8 15 Norte 32 Norte 0 949.9 -1.2 29
2019-08-20 16:00:00 30.4 15 Norte 33 Nordeste 0 950.4 -0.9 31
2019-08-20 15:00:00 29.2 18 Nordeste 41 Nordeste 0 950.9 -0.1 38
2019-08-20 14:00:00 28.2 18 Nordeste 39 Nordeste 0 951.1 0.4 42
2019-08-20 13:00:00 27 19 Nordeste 35 Nordeste 0 951.3 1 47
2019-08-20 12:00:00 25.6 19 Nordeste 32 Nordeste 0 951 1 52
2019-08-20 11:00:00 24 14 Nordeste 26 Nordeste 0 950.7 1.1 57
2019-08-20 10:00:00 20.9 10 Norte 21 Norte 0 950.3 1.4 66
2019-08-20 09:00:00 20.4 12 Norte 17 Noroeste 0 950 1.4 67
2019-08-20 08:00:00 20.5 13 Norte 24 Norte 0 949.6 1.9 67
2019-08-20 07:00:00 20.1 11 Norte 21 Norte 0 948.9 0.3 67
2019-08-20 06:00:00 20.5 15 Norte 22 Norte 0 948.6 -0.1 65
2019-08-20 05:00:00 20.7 14 Este 24 Nordeste 0 947.7 -1 64
2019-08-20 04:00:00 20 12 Norte 24 Este 0.1 948.6 0.5 72
2019-08-20 03:00:00 21.5 6 Nordeste 30 Nordeste 0 948.7 0.9 61
2019-08-20 02:00:00 22.4 16 Nordeste 35 Nordeste 0 948.7 1.6 55
2019-08-20 01:00:00 24.4 9 Nordeste 37 Norte 0 948.1 1.5 43
2019-08-20 00:00:00 26.3 14 Norte 26 Norte 0 947.8 1.6 38
2019-08-19 23:00:00 29.3 10 Norte 26 Oeste 0 947.1 1.2 24
2019-08-19 22:00:00 30 13 Oeste 18 Oeste 0 946.6 0.7 20
2019-08-19 21:00:00 30.4 14 Oeste 28 Oeste 0 946.2 0.2 17
2019-08-19 20:00:00 31.2 14 Oeste 32 Oeste 0 945.9 -0.4 25
2019-08-19 19:00:00 32 20 Oeste 39 Oeste 0 945.9 -1 25
2019-08-19 18:00:00 32.8 15 Oeste 42 Oeste 0 946 -1.3 25
2019-08-19 17:00:00 33.4 17 Oeste 58 Sudoeste 0 946.3 -1.2 23
2019-08-19 16:00:00 32.6 21 Sudoeste 59 Sudoeste 0 946.9 -0.9 24
2019-08-19 15:00:00 32.7 23 Sudoeste 50 Sudoeste 0 947.3 -0.8 25
2019-08-19 14:00:00 32.1 22 Sudoeste 39 Sudoeste 0 947.5 -0.7 26
2019-08-19 13:00:00 29.5 11 Sudoeste 32 Sudoeste 0 947.8 -0.2 34
2019-08-19 12:00:00 28.2 9 Sudeste 17 Sur 0 948.1 0.2 37
2019-08-19 11:00:00 27.3 6 Sur 15 Sur 0 948.2 0.3 37
2019-08-19 10:00:00 25.4 5 Este 9 Este 0 948 0.6 44
2019-08-19 09:00:00 22.8 3 Oeste 13 Norte 0 947.9 0.7 49
2019-08-19 08:00:00 20.1 6 Norte 9 Norte 0 947.9 0.6 52
2019-08-19 07:00:00 20.7 9 Norte 11 Norte 0 947.4 0.2 52
2019-08-19 06:00:00 20.9 6 Este 9 Sudeste 0 947.2 -0.1 41
2019-08-19 05:00:00 22.5 5 Este 13 Este 0 947.3 0 38
2019-08-19 04:00:00 23 8 Este 13 Este 0 947.2 0 37
2019-08-19 03:00:00 23 4 Nordeste 5 Nordeste 0 947.3 0.6 40
2019-08-19 02:00:00 24.4 7 Norte 11 Norte 0 947.3 1 38
2019-08-19 01:00:00 25.7 8 Nordeste 11 Este 0 947.2 1.7 32
2019-08-19 00:00:00 28.4 10 Oeste 17 Oeste 0 946.7 1.7 28
2019-08-18 23:00:00 29.4 15 Sudoeste 33 Sudoeste 0 946.3 1.7 24
2019-08-18 22:00:00 30.5 19 Sudoeste 46 Sudoeste 0 945.5 1 18
2019-08-18 21:00:00 32.5 30 Sudoeste 54 Oeste 0 945 0.2 13
2019-08-18 20:00:00 34.2 35 Sudoeste 50 Sudoeste 0 944.6 -0.5 11
2019-08-18 19:00:00 35.2 30 Sudoeste 52 Sudoeste 0 944.5 -0.8 9
2019-08-18 18:00:00 35.6 29 Sudoeste 54 Sudoeste 0 944.8 -0.8 8
2019-08-18 17:00:00 35.7 33 Sudoeste 52 Sur 0 945.1 -1.1 8
2019-08-18 16:00:00 35.6 32 Sudoeste 71 Sudoeste 0 945.3 -1.3 9
2019-08-18 15:00:00 34.5 32 Sudoeste 55 Sudoeste 0 945.6 -1.4 10
2019-08-18 14:00:00 33.5 23 Sudoeste 52 Sudoeste 0 946.2 -1 14
2019-08-18 13:00:00 32.9 20 Sudoeste 58 Oeste 0 946.6 -0.4 17
2019-08-18 12:00:00 31.4 21 Sudoeste 41 Sudoeste 0 947 0.5 20
2019-08-18 11:00:00 27.7 9 Sur 17 Sudeste 0 947.2 0.9 26
2019-08-18 10:00:00 23.7 3 Norte 8 Oeste 0 947 1.3 30
2019-08-18 09:00:00 20.4 6 Norte 9 Norte 0 946.5 0.9 36
2019-08-18 08:00:00 16.5 6 Norte -- -- 0 946.3 0.7 43
2019-08-18 07:00:00 17.1 5 Norte 8 Norte 0 945.7 0 40
2019-08-18 06:00:00 18.4 7 Norte 13 Noroeste 0 945.6 0 36
2019-08-18 05:00:00 19.1 2 Noroeste 11 Norte 0 945.6 -0.3 35
2019-08-18 04:00:00 20.8 6 Noroeste 8 Noroeste 0 945.7 -0.2 32
2019-08-18 03:00:00 22.5 6 Norte 9 Norte 0 945.6 0 29
2019-08-18 02:00:00 24.6 5 Sudeste 8 Sudeste 0 945.9 0.3 23
2019-08-18 01:00:00 28.1 8 Este 18 Oeste 0 945.9 0.5 19
2019-08-18 00:00:00 31.3 16 Oeste 26 Oeste 0 945.6 0.6 16
2019-08-17 23:00:00 31.9 18 Oeste 32 Oeste 0 945.6 0.5 17
2019-08-17 22:00:00 32.9 19 Oeste 26 Sudoeste 0 945.4 -0.1 17
2019-08-17 21:00:00 34.6 20 Sudoeste 42 Sudoeste 0 945 -0.9 15
2019-08-17 20:00:00 36.3 23 Oeste 32 Oeste 0 945.1 -1.3 14
2019-08-17 19:00:00 37 19 Sudoeste 39 Sudoeste 0 945.5 -1.6 15
2019-08-17 18:00:00 37.4 22 Sudoeste 48 Sudoeste 0 945.9 -1.7 15
2019-08-17 17:00:00 37.2 24 Sudoeste 63 Sudoeste 0 946.4 -2 15
2019-08-17 16:00:00 36.9 28 Sudoeste 59 Sudoeste 0 947.1 -1.9 14
2019-08-17 15:00:00 36.2 23 Sudoeste 39 Sudoeste 0 947.6 -1.8 15
2019-08-17 14:00:00 35 20 Sudoeste 32 Sudoeste 0 948.4 -1.4 17
2019-08-17 13:00:00 33.5 10 Sur 24 Sudoeste 0 949 -0.9 21
2019-08-17 12:00:00 30.7 6 Sudoeste 24 Sudoeste 0 949.4 -0.2 28
2019-08-17 11:00:00 28.4 7 Sur 21 Sudoeste 0 949.8 0.5 33
2019-08-17 10:00:00 26.1 6 Sudeste 11 Sudeste 0 949.9 0.9 32
2019-08-17 09:00:00 22.3 2 Norte 11 Norte 0 949.6 0.6 39
2019-08-17 08:00:00 18.8 7 Norte 9 Norte 0 949.3 0.7 47
2019-08-17 07:00:00 19.3 6 Norte 11 Norte 0 949 0.6 46
2019-08-17 06:00:00 20.3 8 Nordeste 9 Nordeste 0 949 0.6 43
2019-08-17 05:00:00 21.3 7 Norte 11 Norte 0 948.6 0.1 41
2019-08-17 04:00:00 23.1 6 Este 9 Sudeste 0 948.4 0 36
2019-08-17 03:00:00 24 3 Oeste 9 Norte 0 948.4 0.4 35
2019-08-17 02:00:00 25.2 4 Nordeste 8 Nordeste 0 948.5 0.6 33
2019-08-17 01:00:00 27.3 3 Nordeste 15 Noroeste 0 948.4 1 30
2019-08-17 00:00:00 29.1 11 Noroeste 18 Noroeste 0 948 0.9 27
2019-08-16 23:00:00 32.3 14 Oeste 45 Oeste 0 947.9 1 23
2019-08-16 22:00:00 33.2 14 Sudoeste 32 Sudoeste 0 947.4 0.3 19
2019-08-16 21:00:00 34.5 15 Sudoeste 32 Sudoeste 0 947.1 -0.4 18
2019-08-16 20:00:00 35.7 17 Sudoeste 35 Sur 0 946.9 -1.2 17
2019-08-16 19:00:00 36.3 16 Sudoeste 41 Sudoeste 0 947.1 -1.6 15
2019-08-16 18:00:00 36.5 13 Sudoeste 42 Oeste 0 947.5 -1.9 17
2019-08-16 17:00:00 36.1 22 Sudoeste 41 Sudoeste 0 948.1 -1.9 18
2019-08-16 16:00:00 35.5 18 Sudoeste 33 Sudoeste 0 948.7 -1.9 19
2019-08-16 15:00:00 34.7 14 Sur 24 Sur 0 949.4 -1.8 23
2019-08-16 14:00:00 33.2 10 Sur 39 Sudoeste 0 950 -1.4 28
2019-08-16 13:00:00 31 10 Sur 18 Sur 0 950.6 -1 33
2019-08-16 12:00:00 29.2 7 Sur 22 Sur 0 951.2 -0.3 36
2019-08-16 11:00:00 27.2 10 Sudeste 18 Sur 0 951.4 0.1 40
2019-08-16 10:00:00 25.2 4 Norte 11 Este 0 951.6 0.6 42
2019-08-16 09:00:00 22.9 5 Este -- -- 0 951.5 0.5 46
2019-08-16 08:00:00 19 0 Calma 8 Nordeste 0 951.3 0.3 56
2019-08-16 07:00:00 19.8 3 Nordeste 11 Norte 0 951 0 53
2019-08-16 06:00:00 21.3 6 Norte 15 Norte 0 951 -0.2 49
2019-08-16 05:00:00 22.1 9 Norte 17 Norte 0 951 -0.2 47
2019-08-16 04:00:00 22.9 11 Norte 18 Norte 0 951 0.1 45
2019-08-16 03:00:00 23.6 5 Nordeste 24 Norte 0 951.2 0.7 43
2019-08-16 02:00:00 24.8 12 Norte 39 Nordeste 0 951.2 1.3 40
2019-08-16 01:00:00 25.7 19 Nordeste 37 Nordeste 0 950.9 1.6 38
2019-08-16 00:00:00 28 21 Nordeste 41 Nordeste 0 950.5 1.9 34
2019-08-15 23:00:00 29.8 13 Norte 21 Norte 0 949.9 1.6 25
2019-08-15 22:00:00 31.7 15 Norte 24 Norte 0 949.3 0.7 22
2019-08-15 21:00:00 34.7 10 Sudoeste 22 Sudoeste 0 948.6 -0.2 18
2019-08-15 20:00:00 35.7 8 Sudoeste 17 Sur 0 948.3 -0.9 20
2019-08-15 19:00:00 34.8 7 Sudeste 22 Sur 0 948.6 -1.3 21
2019-08-15 18:00:00 36.2 7 Sur 15 Sudoeste 0 948.8 -1.6 19
2019-08-15 17:00:00 35.6 11 Sur 26 Sur 0 949.2 -1.7 19
2019-08-15 16:00:00 35.1 5 Nordeste 26 Sudoeste 0 949.9 -1.6 19
2019-08-15 15:00:00 34.6 6 Oeste 26 Oeste 0 950.4 -1.7 19
2019-08-15 14:00:00 33.5 6 Sur 22 Sur 0 950.9 -1.5 19
2019-08-15 13:00:00 32.4 6 Sudeste 17 Sudeste 0 951.5 -0.8 19
2019-08-15 12:00:00 30.1 8 Este 15 Noroeste 0 952.1 -0.3 22
2019-08-15 11:00:00 27.3 5 Nordeste 11 Nordeste 0 952.4 0.2 27
2019-08-15 10:00:00 24.5 5 Sudeste 13 Sudoeste 0 952.3 0.7 31
2019-08-15 09:00:00 20.8 3 Norte 8 Norte 0 952.4 1.3 36
2019-08-15 08:00:00 15.9 3 Norte 8 Nordeste 0 952.2 1 44
2019-08-15 07:00:00 17 0 Calma 9 Norte 0 951.6 0.5 39
2019-08-15 06:00:00 17.2 7 Norte 9 Norte 0 951.1 -0.1 39
2019-08-15 05:00:00 18.5 7 Norte 11 Norte 0 951.2 -0.2 37
2019-08-15 04:00:00 19 6 Nordeste 11 Norte 0 951.1 -0.1 36
2019-08-15 03:00:00 20.4 4 Norte 8 Norte 0 951.2 0.1 33
2019-08-15 02:00:00 21.9 4 Noroeste 13 Norte 0 951.4 0.4 30
2019-08-15 01:00:00 23.4 10 Nordeste 15 Norte 0 951.2 0.8 27
2019-08-15 00:00:00 25.6 9 Norte 13 Nordeste 0 951.1 1.3 24
2019-08-14 23:00:00 29.1 10 Sudoeste 22 Sudoeste 0 951 1.4 19
2019-08-14 22:00:00 29.9 9 Sur 21 Sur 0 950.4 0.7 19
2019-08-14 21:00:00 31.6 13 Sudeste 22 Sur 0 949.8 -0.4 17
2019-08-14 20:00:00 33.1 11 Sur 18 Sur 0 949.6 -1.1 15
2019-08-14 19:00:00 33.8 12 Sur 24 Sur 0 949.7 -1.5 16
2019-08-14 18:00:00 33.4 9 Sur 21 Sur 0 950.2 -1.6 16
2019-08-14 17:00:00 33.5 5 Este 21 Sudoeste 0 950.7 -1.7 16
2019-08-14 16:00:00 32.7 7 Sudoeste 18 Oeste 0 951.2 -2 17
2019-08-14 15:00:00 31.4 8 Sudoeste 22 Sudoeste 0 951.8 -1.7 18
2019-08-14 14:00:00 29.8 5 Oeste 17 Sur 0 952.4 -1.1 22
2019-08-14 13:00:00 28.8 7 Sur 26 Oeste 0 953.2 -0.5 24
2019-08-14 12:00:00 26.1 6 Sudoeste 13 Sudoeste 0 953.5 -0.2 35
2019-08-14 11:00:00 23.9 6 Sur 15 Sur 0 953.5 0.3 35
2019-08-14 10:00:00 21.2 4 Nordeste 11 Este 0 953.7 0.6 36
2019-08-14 09:00:00 17.8 3 Sudeste 9 Norte 0 953.7 0.9 38
2019-08-14 08:00:00 14.3 5 Norte 13 Norte 0 953.2 0.3 43
2019-08-14 07:00:00 15.4 10 Norte 13 Norte 0 953.1 0.3 41
2019-08-14 06:00:00 15.8 6 Norte 15 Norte 0 952.8 0 42
2019-08-14 05:00:00 16.9 6 Norte 13 Norte 0 952.9 0.4 38
2019-08-14 04:00:00 18.9 9 Norte 15 Norte 0 952.8 0.5 35
2019-08-14 03:00:00 20.1 8 Noroeste 18 Nordeste 0 952.8 0.7 29
2019-08-14 02:00:00 21.7 11 Nordeste 22 Nordeste 0 952.5 1.1 24
2019-08-14 01:00:00 21.3 6 Nordeste 13 Nordeste 0 952.3 1.6 22
2019-08-14 00:00:00 23 3 Este 21 Este 0 952.1 2 20
2019-08-13 23:00:00 25.1 15 Norte 24 Norte 0 951.4 1.6 19
2019-08-13 22:00:00 25.9 13 Norte 22 Nordeste 0 950.7 0.9 18
2019-08-13 21:00:00 29.1 8 Oeste 15 Sur 0 950.1 0 17
2019-08-13 20:00:00 30.2 9 Sudeste 17 Sudeste 0 949.8 -0.9 18
2019-08-13 19:00:00 30.7 7 Sudoeste 21 Sur 0 949.8 -1.3 18
2019-08-13 18:00:00 30.3 6 Sur 24 Sudoeste 0 950.1 -1.6 19
2019-08-13 17:00:00 29.8 12 Noroeste 22 Oeste 0 950.7 -1.6 20
2019-08-13 16:00:00 29 5 Nordeste 26 Noroeste 0 951.1 -1.7 21
2019-08-13 15:00:00 28 5 Noroeste 17 Noroeste 0 951.7 -1.5 24
2019-08-13 14:00:00 27 8 Sudoeste 15 Oeste 0 952.3 -1 30
2019-08-13 13:00:00 25.7 7 Sudoeste 15 Sudoeste 0 952.8 -0.8 36
2019-08-13 12:00:00 24.1 8 Norte 18 Nordeste -- 953.2 -0.2 33
2019-08-13 11:00:00 21.6 9 Nordeste 17 Norte 0 953.3 0.3 36
2019-08-13 10:00:00 19.1 11 Nordeste 21 Nordeste 0 953.6 0.5 41
2019-08-13 09:00:00 17.1 13 Norte 21 Norte 0 953.4 0.5 45
2019-08-13 08:00:00 15.1 14 Norte 21 Norte 0 953 0 52
2019-08-13 07:00:00 15.6 15 Norte 28 Norte 0 953.1 0.1 51
2019-08-13 06:00:00 16.1 13 Norte 28 Norte 0 952.9 -0.3 50
2019-08-13 05:00:00 16.7 14 Norte 21 Norte 0 953 -0.5 49
2019-08-13 04:00:00 17.2 10 Nordeste 33 Nordeste 0 953 0.1 47
2019-08-13 03:00:00 18 20 Nordeste 39 Nordeste 0 953.2 0.7 44
2019-08-13 02:00:00 18.6 12 Nordeste 35 Este 0 953.5 2 43
2019-08-13 01:00:00 19.5 13 Nordeste 33 Nordeste 0 952.9 1.9 39
2019-08-13 00:00:00 21.3 17 Nordeste 35 Nordeste 0 952.5 2 32
2019-08-12 23:00:00 22.5 17 Norte 32 Norte 0 951.5 1.7 25
2019-08-12 22:00:00 23.8 19 Norte 33 Norte 0 951 1.4 21
2019-08-12 21:00:00 25.9 20 Norte 30 Norte 0 950.5 0.5 19
2019-08-12 20:00:00 26.7 16 Norte 26 Norte 0 949.8 -0.4 18
2019-08-12 19:00:00 28.3 17 Norte 32 Norte 0 949.6 -1.3 17
2019-08-12 18:00:00 28.5 13 Norte 28 Norte 0 950 -1.2 17
2019-08-12 17:00:00 28.4 17 Norte 42 Norte 0 950.2 -1.5 17
2019-08-12 16:00:00 27.3 8 Noroeste 33 Noroeste 0 950.9 -1.3 18
2019-08-12 15:00:00 26.6 10 Noroeste 32 Norte 0 951.2 -1.1 18
2019-08-12 14:00:00 25.6 17 Norte 35 Norte 0 951.7 -0.5 19
2019-08-12 13:00:00 24.6 22 Norte 42 Norte 0 952.2 0.2 22
2019-08-12 12:00:00 23.8 23 Norte 37 Norte 0 952.3 0.9 24
2019-08-12 11:00:00 22.2 18 Nordeste 35 Nordeste 0 952.2 1.4 34
2019-08-12 10:00:00 20.7 21 Norte 32 Norte 0 952 1.6 37
2019-08-12 09:00:00 18.3 9 Nordeste 18 Nordeste 0 951.4 1.3 50
2019-08-12 08:00:00 15.2 3 Este 9 Nordeste 0 950.8 0.9 57
2019-08-12 07:00:00 14.7 6 Nordeste 15 Nordeste 0 950.4 0.5 51
2019-08-12 06:00:00 14.5 2 Este 8 Este 0 950.1 0.1 46
2019-08-12 05:00:00 15.5 4 Sudeste 9 Noroeste 0 949.9 -0.1 40
2019-08-12 04:00:00 16.5 2 Sur 9 Norte 0 949.9 0 37
2019-08-12 03:00:00 17.8 5 Este 9 Este 0 950 0.4 34
2019-08-12 02:00:00 18.9 6 Este 8 Sudeste 0 950 0.7 34
2019-08-12 01:00:00 20.4 5 Este 9 Este 0 949.9 1.6 32
2019-08-12 00:00:00 22.9 5 Noroeste 21 Oeste 0 949.6 1.8 28
2019-08-11 23:00:00 24 16 Noroeste 30 Oeste 0 949.3 1.9 27
2019-08-11 22:00:00 25.2 21 Oeste 33 Oeste 0 948.3 1 25
2019-08-11 21:00:00 26.6 27 Oeste 35 Oeste 0 947.8 0.6 26
2019-08-11 20:00:00 28.1 15 Oeste 37 Oeste 0 947.4 -0.1 27
2019-08-11 19:00:00 29.6 26 Sudoeste 48 Sudoeste 0 947.3 -0.6 19
2019-08-11 18:00:00 29.8 27 Sudoeste 63 Sudoeste 0 947.2 -1.1 17
2019-08-11 17:00:00 30.1 23 Sudoeste 54 Sudoeste 0 947.5 -1.1 16
2019-08-11 16:00:00 30.1 24 Sudoeste 55 Sudoeste 0 947.9 -1.1 16
2019-08-11 15:00:00 29.5 29 Sudoeste 45 Sudoeste 0 948.3 -1 15
2019-08-11 14:00:00 28.8 26 Sudoeste 52 Sudoeste 0 948.6 -0.5 23
2019-08-11 13:00:00 28.4 21 Sudoeste 55 Sudoeste 0 949 0 27
2019-08-11 12:00:00 27.3 14 Sudoeste 37 Sudoeste 0 949.3 0.5 28
2019-08-11 11:00:00 26.3 7 Sudoeste 21 Sudoeste 0 949.1 0.6 30
2019-08-11 10:00:00 24.9 8 Sudeste 15 Sur 0 949 0.8 33
2019-08-11 09:00:00 22 5 Sur 11 Sur 0 948.8 0.7 38
2019-08-11 08:00:00 19.8 0 Calma 15 Sudeste 0 948.5 0.6 40
2019-08-11 07:00:00 19.2 7 Este 17 Este 0 948.2 0.4 39
2019-08-11 06:00:00 17.8 6 Nordeste 9 Nordeste 0 948.1 0.2 40
2019-08-11 05:00:00 18.1 4 Norte 9 Norte 0 947.9 -0.2 38
2019-08-11 04:00:00 19.2 2 Norte 9 Norte 0 947.8 -0.5 34
2019-08-11 03:00:00 20.7 6 Norte 11 Norte 0 947.9 -0.6 32
2019-08-11 02:00:00 24.3 4 Este 17 Sudoeste 0 948.1 -0.6 28
2019-08-11 01:00:00 25.9 10 Sur 13 Sur 0 948.3 -0.2 25
2019-08-11 00:00:00 27 10 Oeste 21 Oeste 0 948.5 0.3 24
2019-08-10 23:00:00 27.9 13 Oeste 21 Oeste 0 948.7 0.6 22
2019-08-10 22:00:00 29 17 Oeste 24 Oeste 0 948.5 0.2 19
2019-08-10 21:00:00 30 14 Oeste 28 Oeste 0 948.2 -0.7 21
2019-08-10 20:00:00 31.6 12 Oeste 41 Oeste 0 948.1 -1.6 22
2019-08-10 19:00:00 32.3 19 Sudoeste 45 Sudoeste 0 948.3 -2 21
2019-08-10 18:00:00 32.4 16 Sudoeste 54 Sudoeste 0 948.9 -1.9 18
2019-08-10 17:00:00 31.9 19 Sudoeste 52 Sudoeste 0 949.7 -1.6 19
2019-08-10 16:00:00 31.4 21 Sudoeste 50 Sudoeste 0 950.3 -1.5 23
2019-08-10 15:00:00 30.6 17 Sur 37 Sudoeste 0 950.8 -1.3 22
2019-08-10 14:00:00 29.2 13 Sudoeste 28 Sudoeste 0 951.3 -1 24
2019-08-10 13:00:00 27.6 11 Sudoeste 28 Sudoeste 0 951.8 -0.7 32
2019-08-10 12:00:00 26.3 7 Sur 18 Este 0 952.1 0 39
2019-08-10 11:00:00 24.5 3 Sudoeste 17 Sur 0 952.3 0.6 46
2019-08-10 10:00:00 22.4 8 Sudeste 15 Sur 0 952.5 1.1 54
2019-08-10 09:00:00 20.4 9 Sur 21 Sudoeste 0 952.1 1.1 61
2019-08-10 08:00:00 19.2 9 Sur 18 Sudoeste 0 951.7 1 64
2019-08-10 07:00:00 19.9 8 Sur 13 Sur 0 951.4 0.9 61
2019-08-10 06:00:00 20.9 6 Sudoeste 15 Oeste 0 951 0.6 58
2019-08-10 05:00:00 20.3 8 Sur 13 Sudeste 0 950.7 0.3 70
2019-08-10 04:00:00 21.4 6 Sudeste 13 Sudeste 0 950.5 0.3 69
2019-08-10 03:00:00 22.5 4 Este 17 Sudoeste 0 950.4 0.1 66
2019-08-10 02:00:00 23.4 11 Sudoeste 22 Oeste 0 950.4 0.2 64
2019-08-10 01:00:00 24.2 13 Sudoeste 28 Oeste 0 950.2 0.4 61
2019-08-10 00:00:00 25.1 22 Oeste 30 Sudoeste 0 950.3 1.2 58
2019-08-09 23:00:00 25.8 17 Sudoeste 39 Sudoeste 0 950.2 1.9 54
2019-08-09 22:00:00 26.5 23 Oeste 50 Sudoeste 0 949.8 1.9 56
2019-08-09 21:00:00 28.4 26 Oeste 54 Sudoeste 0 949.1 1.4 51
2019-08-09 20:00:00 31.3 26 Sudoeste 52 Sudoeste 0 948.3 0.6 39
2019-08-09 19:00:00 31.9 35 Sudoeste 58 Sudoeste 0 947.9 -0.2 36
2019-08-09 18:00:00 32.4 36 Sudoeste 74 Sudoeste 0 947.7 -1 35
2019-08-09 17:00:00 32.2 35 Sudoeste 59 Sudoeste 0 947.7 -1.5 37
2019-08-09 16:00:00 32.2 36 Sudoeste 65 Sudoeste 0 948.1 -1.3 37
2019-08-09 15:00:00 31.6 31 Sudoeste 68 Sudoeste 0 948.7 -0.7 40
2019-08-09 14:00:00 30.6 31 Sudoeste 58 Sudoeste 0 949.2 0.1 43
2019-08-09 13:00:00 29.6 28 Sudoeste 54 Sudoeste 0 949.4 0.6 46
2019-08-09 12:00:00 28.1 26 Sudoeste 52 Sudoeste 0 949.4 0.7 50
2019-08-09 11:00:00 26.9 27 Sudoeste 52 Sudoeste 0 949.1 1.1 52
2019-08-09 10:00:00 25.8 25 Sudoeste 39 Sudoeste 0 948.8 1 52
2019-08-09 09:00:00 24.4 19 Sudoeste 39 Sudoeste 0 948.7 1.3 57
2019-08-09 08:00:00 23.6 14 Sur 30 Sudoeste 0 948 0.6 59
2019-08-09 07:00:00 24.1 16 Sudoeste 24 Sudoeste 0 947.8 0.6 55
2019-08-09 06:00:00 24.7 14 Sudoeste 24 Sudoeste 0 947.4 0.5 53
2019-08-09 05:00:00 25.1 18 Sudoeste 24 Sudoeste 0 947.4 0.4 50
2019-08-09 04:00:00 26 17 Sur 22 Sur 0 947.2 0.4 45
2019-08-09 03:00:00 26.8 10 Sudoeste 18 Sudoeste 0 946.9 0.1 40
2019-08-09 02:00:00 27.2 12 Sudoeste 15 Oeste 0 947 0.6 38
2019-08-09 01:00:00 28.2 11 Oeste 21 Oeste 0 946.8 1 36
2019-08-09 00:00:00 29.3 16 Oeste 24 Oeste 0 946.8 1.3 33
2019-08-08 23:00:00 30.1 16 Oeste 32 Oeste 0 946.4 1.1 32
2019-08-08 22:00:00 31 23 Oeste 42 Oeste 0 945.8 0.5 32
2019-08-08 21:00:00 32.4 23 Sudoeste 41 Sudoeste 0 945.5 -0.1 29
2019-08-08 20:00:00 33.8 26 Sudoeste 42 Oeste 0 945.3 -0.8 26
2019-08-08 19:00:00 34.5 28 Sudoeste 50 Sudoeste 0 945.3 -1.5 24
2019-08-08 18:00:00 34.5 27 Sudoeste 48 Sudoeste 0 945.6 -1.7 25
2019-08-08 17:00:00 33.4 20 Sudoeste 48 Sudoeste 0 946.1 -1.6 29
2019-08-08 16:00:00 32.8 22 Sudoeste 48 Sudoeste 0 946.8 -1.4 31
2019-08-08 15:00:00 32 22 Sudoeste 35 Oeste 0 947.3 -1.2 34
2019-08-08 14:00:00 30.9 18 Sur 42 Sudoeste 0 947.7 -1 37
2019-08-08 13:00:00 29.4 14 Sur 42 Sudoeste 0 948.2 -0.7 38
2019-08-08 12:00:00 27.9 15 Sur 30 Sur 0 948.5 -0.3 41
2019-08-08 11:00:00 26 9 Sudeste 17 Sudoeste 0 948.7 0.2 46
2019-08-08 10:00:00 23.8 4 Sur 17 Oeste 0 948.9 0.5 50
2019-08-08 09:00:00 21.7 0 Calma 8 Nordeste 0 948.8 1.1 54
2019-08-08 08:00:00 17.6 6 Norte 9 Norte 0 948.5 0.5 65
2019-08-08 07:00:00 18.6 5 Norte 11 Norte 0 948.4 0.4 63
2019-08-08 06:00:00 20.6 6 Sudeste 15 Sudoeste 0 947.7 -0.3 60
2019-08-08 05:00:00 22.6 10 Sudoeste 18 Sudoeste 0 948 -0.2 54
2019-08-08 04:00:00 22.9 13 Oeste 28 Sudoeste 0 948 -0.1 54
2019-08-08 03:00:00 23.2 19 Sudoeste 28 Sudoeste 0 948 -0.1 49
2019-08-08 02:00:00 23.4 18 Sudoeste 26 Sudoeste 0 948.2 0.2 48
2019-08-08 01:00:00 23.8 16 Sudoeste 30 Sudoeste 0 948.1 0.9 46
2019-08-08 00:00:00 24.4 21 Sudoeste 30 Sudoeste 0 948.1 1.3 44
2019-08-07 23:00:00 24.8 19 Sudoeste 32 Sudoeste 0 948 1.2 44
2019-08-07 22:00:00 25.6 18 Sur 37 Oeste 0 947.2 0.4 43
2019-08-07 21:00:00 26.8 18 Sudoeste 39 Oeste 0 946.8 -0.4 39
2019-08-07 20:00:00 27.4 25 Sudoeste 39 Oeste 0 946.8 -0.6 36
2019-08-07 19:00:00 28.7 19 Sudoeste 37 Oeste 0 946.8 -0.5 35
2019-08-07 18:00:00 28.4 14 Sudoeste 33 Sudoeste 0 947.2 0.1 33
2019-08-07 17:00:00 27.9 8 Sudoeste 33 Oeste 0 947.4 0 38
2019-08-07 16:00:00 27.2 15 Oeste 41 Sudoeste 0 947.3 0.4 42
2019-08-07 15:00:00 27.7 8 Oeste 33 Sudoeste 0 947.1 0.4 39
2019-08-07 14:00:00 27.8 18 Sudoeste 37 Sudoeste 0 947.4 1.2 39
2019-08-07 13:00:00 27.3 12 Sudoeste 37 Sudoeste 0 946.9 1 40
2019-08-07 12:00:00 26.7 14 Sur 33 Sudoeste 0 946.7 1.5 42
2019-08-07 11:00:00 26.4 12 Sudoeste 30 Sudoeste 0 946.2 1.6 41
2019-08-07 10:00:00 26.4 9 Sudoeste 35 Sudoeste 0 945.9 1.6 41
2019-08-07 09:00:00 25.8 8 Sur 30 Sudoeste 0 945.2 1.2 40
2019-08-07 08:00:00 25.4 6 Sudoeste 22 Oeste 0 944.6 0.4 40
2019-08-07 07:00:00 25.6 13 Sudoeste 22 Sudoeste 0 944.3 0.1 38
2019-08-07 06:00:00 25.7 7 Sudeste 18 Sudoeste 0 944 0.2 34
2019-08-07 05:00:00 26.6 13 Oeste 21 Oeste 0 944.2 0.2 33
2019-08-07 04:00:00 26.8 13 Sudoeste 21 Sudoeste 0 944.2 0 30
2019-08-07 03:00:00 26.9 10 Sur 13 Sur 0 943.8 -0.5 29
2019-08-07 02:00:00 28.6 11 Sudoeste 22 Oeste 0 944 -0.4 27
2019-08-07 01:00:00 29.5 12 Oeste 28 Sudoeste 0 944.2 0.6 22
2019-08-07 00:00:00 30.4 22 Sudoeste 39 Sudoeste 0 944.3 1 22
2019-08-06 23:00:00 30.9 23 Sudoeste 37 Sudoeste 0 944.4 1.3 22
2019-08-06 22:00:00 31.9 22 Sudoeste 41 Oeste 0 943.6 0.2 21
2019-08-06 21:00:00 33.2 20 Sudoeste 39 Oeste 0 943.3 -0.4 18
2019-08-06 20:00:00 34.7 22 Sudoeste 39 Sudoeste 0 943.1 -1.2 15
2019-08-06 19:00:00 34.9 23 Sudoeste 39 Sudoeste 0 943.4 -1.6 13
2019-08-06 18:00:00 36 20 Sudoeste 55 Sur 0 943.7 -2 12
2019-08-06 17:00:00 36.3 23 Sudoeste 46 Sudoeste 0 944.3 -2 11
2019-08-06 16:00:00 35.7 21 Sudoeste 48 Sudoeste 0 945 -1.7 12
2019-08-06 15:00:00 34.7 20 Sudoeste 41 Sur 0 945.7 -1.4 14
2019-08-06 14:00:00 33.9 18 Sudoeste 35 Sudoeste 0 946.3 -1 15
2019-08-06 13:00:00 32.9 18 Sudoeste 45 Sudoeste 0 946.7 -0.9 18
2019-08-06 12:00:00 31.3 16 Sudoeste 37 Sudoeste 0 947.1 -0.5 21
2019-08-06 11:00:00 28.2 7 Sudeste 13 Sur 0 947.3 0 23
2019-08-06 10:00:00 25.2 5 Sudeste 9 Sur 0 947.6 0.8 26
2019-08-06 09:00:00 21.4 4 Norte 8 Norte 0 947.6 1 33
2019-08-06 08:00:00 17.7 2 Norte 9 Norte 0 947.3 0.6 39
2019-08-06 07:00:00 18 8 Norte 11 Norte 0 946.8 0.3 38
2019-08-06 06:00:00 19 4 Este 9 Noroeste 0 946.6 0.4 33
2019-08-06 05:00:00 19.6 4 Norte 13 Nordeste 0 946.7 0.4 35
2019-08-06 04:00:00 20.9 4 Norte 8 Nordeste 0 946.5 0.3 31
2019-08-06 03:00:00 22.3 5 Norte 11 Norte 0 946.2 0.4 29
2019-08-06 02:00:00 24.2 3 Nordeste 9 Nordeste 0 946.3 0.6 24
2019-08-06 01:00:00 28.1 7 Este 22 Oeste 0 946.2 1 19
2019-08-06 00:00:00 30.1 15 Sudoeste 21 Oeste 0 945.8 1 17
2019-08-05 23:00:00 31.3 14 Oeste 28 Oeste 0 945.7 1 17
2019-08-05 22:00:00 32.6 13 Oeste 28 Sudoeste 0 945.2 0.3 14
2019-08-05 21:00:00 34.7 15 Oeste 33 Oeste 0 944.8 -0.4 15
2019-08-05 20:00:00 35.8 16 Sudoeste 32 Sudoeste 0 944.7 -1.1 14
2019-08-05 19:00:00 36.4 14 Sudoeste 39 Sur 0 944.9 -1.5 14
2019-08-05 18:00:00 36.5 15 Sudoeste 39 Sudoeste 0 945.2 -1.7 14
2019-08-05 17:00:00 36.3 17 Sudoeste 54 Oeste 0 945.8 -1.6 13
2019-08-05 16:00:00 35.7 17 Sudoeste 45 Sudoeste 0 946.4 -1.7 14
2019-08-05 15:00:00 35.3 20 Sur 37 Sudoeste 0 946.9 -1.6 16
2019-08-05 14:00:00 34.3 19 Sur 41 Sudoeste 0 947.4 -1.4 17
2019-08-05 13:00:00 33.2 14 Sur 26 Sudoeste 0 948.1 -0.9 20
2019-08-05 12:00:00 30 3 Sudoeste 13 Sur 0 948.5 -0.3 24
2019-08-05 11:00:00 27.5 5 Oeste 17 Oeste 0 948.8 0.1 27
2019-08-05 10:00:00 24.4 2 Noroeste 9 Noroeste 0 949 0.8 31
2019-08-05 09:00:00 21.8 6 Norte 9 Norte 0 948.8 1 34
2019-08-05 08:00:00 17.8 0 Calma 4 Oeste 0 948.7 1 41
2019-08-05 07:00:00 18.2 0 Calma 8 Norte 0 948.2 0.7 39
2019-08-05 06:00:00 19.3 5 Noroeste 9 Norte 0 947.8 0.4 36
2019-08-05 05:00:00 19.9 5 Noroeste 13 Norte 0 947.7 0.3 34
2019-08-05 04:00:00 20.7 6 Norte 9 Norte 0 947.5 0.2 34
2019-08-05 03:00:00 22 5 Norte 11 Norte 0 947.4 0.4 31
2019-08-05 02:00:00 25.1 5 Nordeste 13 Sudeste 0 947.4 0.3 28
2019-08-05 01:00:00 27.1 5 Este 21 Sudoeste 0 947.3 0.7 26
2019-08-05 00:00:00 30.6 15 Sudoeste 21 Oeste 0 947 1.1 22
2019-08-04 23:00:00 31.4 15 Sudoeste 22 Sudoeste 0 947.1 1.4 20
2019-08-04 22:00:00 32.4 12 Sudoeste 35 Sudoeste 0 946.6 0.9 17
2019-08-04 21:00:00 34.2 18 Sur 33 Sudoeste 0 945.9 0 13
2019-08-04 20:00:00 35.4 18 Sudoeste 41 Sudoeste 0 945.7 -0.4 11
2019-08-04 19:00:00 35.9 12 Sudoeste 41 Sudoeste 0 945.7 -1 12
2019-08-04 18:00:00 36 18 Sudoeste 42 Sudoeste 0 945.9 -1.3 14
2019-08-04 17:00:00 36 22 Sudoeste 48 Sudoeste 0 946.1 -1.5 13
2019-08-04 16:00:00 35.4 15 Sur 54 Sudoeste 0 946.7 -1.4 14
2019-08-04 15:00:00 35.1 19 Sudoeste 39 Sudoeste 0 947.2 -1.2 14
2019-08-04 14:00:00 34.3 17 Sudoeste 39 Sudoeste 0 947.6 -1.1 17
2019-08-04 13:00:00 32.8 14 Oeste 32 Oeste 0 948.1 -0.5 21
2019-08-04 12:00:00 30.3 3 Sudoeste 13 Sur 0 948.4 0.1 23
2019-08-04 11:00:00 27.5 3 Sudeste 15 Oeste 0 948.7 0.7 24
2019-08-04 10:00:00 24.6 2 Noroeste 8 Oeste 0 948.6 0.9 26
2019-08-04 09:00:00 21.1 8 Norte 11 Norte 0 948.3 1 31
2019-08-04 08:00:00 17.6 7 Norte 11 Norte 0 948 1.1 36
2019-08-04 07:00:00 17.7 4 Norte 5 Norte 0 947.7 1.2 35
2019-08-04 06:00:00 18.4 5 Norte 11 Norte 0 947.3 1.1 33
2019-08-04 05:00:00 19.6 0 Calma 9 Norte 0 946.9 0.9 32
2019-08-04 04:00:00 21.3 5 Norte 9 Norte 0 946.5 0.5 28
2019-08-04 03:00:00 22.2 9 Noroeste 13 Norte 0 946.2 0.3 28
2019-08-04 02:00:00 24.8 0 Calma 11 Sudoeste 0 946 0.1 25
2019-08-04 01:00:00 27.4 2 Norte 21 Oeste 0 946 0.8 21
2019-08-04 00:00:00 30.4 16 Oeste 22 Oeste 0 945.9 1.1 18
2019-08-03 23:00:00 31.2 10 Oeste 21 Oeste 0 945.9 1.2 17
2019-08-03 22:00:00 32.4 11 Sudoeste 26 Sudoeste 0 945.2 0.2 12
2019-08-03 21:00:00 34.5 15 Sudoeste 32 Sudoeste 0 944.8 -0.7 11
2019-08-03 20:00:00 35.8 15 Sudoeste 41 Sudoeste 0 944.7 -1.3 10
2019-08-03 19:00:00 36.5 19 Sudoeste 35 Oeste 0 945 -- 10
2019-08-03 18:00:00 36.8 22 Sudoeste 42 Sudoeste 0 945.5 -1.6 10
2019-08-03 17:00:00 36.4 21 Sur -- -- -- 946 -1.5 10
2019-08-03 16:00:00 -- -- -- -- -- -- -- -- --
2019-08-03 15:00:00 35 17 Sudoeste 33 Sur 0 947.1 -1.3 15
2019-08-03 14:00:00 33.8 9 Sudoeste 24 Sudoeste 0 947.5 -1.2 20
2019-08-03 13:00:00 31.5 7 Sur 24 Sudoeste 0 948.1 -0.6 29
2019-08-03 12:00:00 29.8 6 Sur 17 Sur 0 948.4 -0.4 34
2019-08-03 11:00:00 27.9 9 Sudeste 17 Sudoeste 0 948.7 0.1 37
2019-08-03 10:00:00 26.4 5 Este 11 Este 0 948.7 0.5 37
2019-08-03 09:00:00 23.7 0 Calma 8 Este 0 948.8 1 40
2019-08-03 08:00:00 20.1 0 Calma 11 Norte 0 948.6 1.2 46
2019-08-03 07:00:00 19.7 8 Noroeste 9 Noroeste 0 948.2 0.9 48
2019-08-03 06:00:00 20 7 Norte 9 Norte 0 947.8 0.3 43
2019-08-03 05:00:00 20.7 4 Norte 9 Norte 0 947.4 0.1 41
2019-08-03 04:00:00 21.6 5 Norte 11 Norte 0 947.3 0.3 38
2019-08-03 03:00:00 22.7 6 Este 13 Este 0 947.5 0.7 31
2019-08-03 02:00:00 23.3 8 Noroeste 17 Norte 0 947.3 0.7 24
2019-08-03 01:00:00 24.5 0 Calma 11 Norte 0 947 0.8 22
2019-08-03 00:00:00 26.5 3 Sur 8 Sur 0 946.8 0.8 19
2019-08-02 23:00:00 31.2 6 Oeste 22 Sudoeste 0 946.6 0.6 15
2019-08-02 22:00:00 32.7 10 Sudoeste 30 Sudoeste 0 946.2 0.1 13
2019-08-02 21:00:00 34.4 13 Sur 32 Sudoeste 0 946 -0.4 11
2019-08-02 20:00:00 35.4 15 Sudoeste 37 Sudoeste 0 946 -0.9 9
2019-08-02 19:00:00 36 17 Sudoeste 28 Sur 0 946.1 -1.2 12
2019-08-02 18:00:00 36.2 9 Sudoeste 35 Sudoeste 0 946.4 -1.3 12
2019-08-02 17:00:00 35.8 12 Sur 42 Sudoeste 0 946.9 -1.1 15
2019-08-02 16:00:00 35.3 9 Sur 37 Sudoeste 0 947.3 -1.1 16
2019-08-02 15:00:00 34.7 5 Sur 21 Sudoeste 0 947.7 -1 18
2019-08-02 14:00:00 33.6 7 Norte 26 Sur 0 948 -0.8 18
2019-08-02 13:00:00 32.5 10 Sur 21 Sur 0 948.4 -0.4 27
2019-08-02 12:00:00 30.3 5 Norte 17 Este 0 948.7 0 32
2019-08-02 11:00:00 28.2 9 Nordeste 17 Nordeste 0 948.8 0.5 40
2019-08-02 10:00:00 25.7 6 Norte 13 Nordeste 0 948.8 1 49
2019-08-02 09:00:00 23.1 3 Norte 15 Norte 0 948.7 1.2 46
2019-08-02 08:00:00 20.1 12 Norte 15 Norte 0 948.3 0.9 52
2019-08-02 07:00:00 20.4 9 Noroeste 13 Noroeste 0 947.8 0.5 48
2019-08-02 06:00:00 20.7 9 Noroeste 13 Norte 0 947.5 0.3 44
2019-08-02 05:00:00 21.3 7 Norte 9 Norte 0 947.4 0.3 41
2019-08-02 04:00:00 23.1 4 Norte 15 Norte 0 947.3 0.4 46
2019-08-02 03:00:00 24.4 8 Norte 15 Noroeste 0 947.2 0.6 40
2019-08-02 02:00:00 24.1 5 Norte 9 Nordeste 0 947.1 1.2 29
2019-08-02 01:00:00 25.1 3 Nordeste 15 Norte 0 946.9 1.7 27
2019-08-02 00:00:00 28 13 Norte 22 Sudoeste 0 946.6 1.9 24
2019-08-01 23:00:00 30.6 18 Sudoeste 37 Sur 0 945.9 1.6 19
2019-08-01 22:00:00 31.6 21 Sudoeste 37 Sur 0 945.2 1.1 16
2019-08-01 21:00:00 32.9 19 Sudoeste 41 Sudoeste 0 944.7 0.2 15
2019-08-01 20:00:00 34 22 Sudoeste 33 Sur 0 944.3 -0.4 13
2019-08-01 19:00:00 34.7 19 Sudoeste 41 Sudoeste 0 944.1 -1.2 13
2019-08-01 18:00:00 34.8 19 Sur 48 Sudoeste 0 944.5 -1.3 15
2019-08-01 17:00:00 34.4 22 Sudoeste 45 Sudoeste 0 944.7 -1.5 17
2019-08-01 16:00:00 33.8 23 Sur 48 Sudoeste 0 945.3 -1.3 20
2019-08-01 15:00:00 32.9 18 Sur 35 Sur 0 945.8 -1.2 24
2019-08-01 14:00:00 31.3 9 Sudoeste 28 Sur 0 946.2 -0.7 30
2019-08-01 13:00:00 29.2 7 Sur 32 Sur 0 946.6 -0.4 39
2019-08-01 12:00:00 27.3 7 Sur 21 Sudoeste 0 947 0.1 44
2019-08-01 11:00:00 25.6 12 Sudeste 22 Sur 0 946.9 0.2 48
2019-08-01 10:00:00 23.5 10 Sudeste 21 Este 0 947 0.7 54
2019-08-01 09:00:00 22.8 12 Este 17 Este 0 946.9 0.6 55
2019-08-01 08:00:00 21.3 14 Sudeste 18 Sur 0 946.7 0.6 59
2019-08-01 07:00:00 21.6 13 Sudeste 17 Sudeste 0 946.3 0 59
2019-08-01 06:00:00 22.3 10 Sudeste 17 Sudeste 0 946.3 -0.2 56
2019-08-01 05:00:00 23 14 Sudeste 21 Sudeste 0 946.1 -0.4 55
2019-08-01 04:00:00 23.6 11 Sudeste 24 Sudeste 0 946.3 0.1 54
2019-08-01 03:00:00 24.1 15 Sudeste 24 Sudeste 0 946.5 0.5 54
2019-08-01 02:00:00 25.1 15 Sudeste 35 Sudeste 0 946.5 1 55
2019-08-01 01:00:00 26.3 21 Sudeste 30 Sudeste 0 946.2 1.5 53
2019-08-01 00:00:00 27.4 18 Sudeste 32 Sudeste 0 946 1.7 49
2019-07-31 23:00:00 28.1 21 Sudeste 32 Sudeste 0 945.5 1.4 46
2019-07-31 22:00:00 29.2 21 Sudeste 33 Este 0 944.7 0.4 43
2019-07-31 21:00:00 30.8 23 Este 39 Este 0 944.3 -0.5 38
2019-07-31 20:00:00 34.3 17 Sudeste 33 Sudeste 0 944.1 -1.3 25
2019-07-31 19:00:00 34.6 12 Sur 32 Sur 0 944.3 -2 23
2019-07-31 18:00:00 34.9 9 Sudeste 35 Sur 0 944.8 -2.1 24
2019-07-31 17:00:00 34.1 19 Sudeste 33 Sudeste 0 945.4 -2.3 24
2019-07-31 16:00:00 33.7 14 Sur 33 Sur 0 946.3 -2.2 26
2019-07-31 15:00:00 32.4 14 Sudeste 39 Sur 0 946.9 -2.3 30
2019-07-31 14:00:00 30.8 11 Este 22 Sudeste 0 947.7 -1.7 36
2019-07-31 13:00:00 29.3 6 Sudoeste 24 Sudoeste 0 948.5 -0.9 36
2019-07-31 12:00:00 27.2 9 Sudeste 18 Este 0 949.2 -0.4 39
2019-07-31 11:00:00 25.5 11 Nordeste 22 Nordeste 0 949.4 -0.4 41
2019-07-31 10:00:00 22.7 11 Norte 24 Norte 0 949.4 -0.7 41
2019-07-31 09:00:00 20.6 12 Norte 21 Norte 0 949.6 -0.3 45
2019-07-31 08:00:00 18.7 12 Norte 18 Norte 0 949.8 0.2 48
2019-07-31 07:00:00 17.7 7 Nordeste 18 Norte 0 950.1 0.5 51
2019-07-31 06:00:00 17.8 6 Norte 22 Norte 0 949.9 0.2 50
2019-07-31 05:00:00 18.3 13 Norte 28 Norte 0 949.6 0 49
2019-07-31 04:00:00 18.7 18 Norte 28 Norte 0 949.6 0.5 48
2019-07-31 03:00:00 19.4 17 Norte 28 Norte 0 949.7 1.3 45
2019-07-31 02:00:00 20.4 21 Norte 41 Norte 0 949.6 1.7 42
2019-07-31 01:00:00 22 21 Norte 39 Norte 0 949.1 2.1 37
2019-07-31 00:00:00 24.1 18 Norte 32 Norte 0 948.4 1.9 33
2019-07-30 23:00:00 25.4 20 Norte 32 Norte 0 947.9 1.4 26
2019-07-30 22:00:00 25.5 4 Norte 8 Norte 0 947 0.4 17
2019-07-30 21:00:00 30.1 5 Norte 9 Nordeste 0 946.5 -0.5 13
2019-07-30 20:00:00 31.8 4 Nordeste 18 Oeste 0 946.5 -1 12
2019-07-30 19:00:00 31.7 6 Sudoeste 21 Sudoeste 0 946.6 -1.4 13
2019-07-30 18:00:00 31.7 8 Oeste 22 Sudoeste 0 947 -1.7 13
2019-07-30 17:00:00 30.9 12 Sur 21 Noroeste 0 947.5 -1.7 15
2019-07-30 16:00:00 30.2 9 Noroeste 18 Noroeste 0 948 -1.6 16
2019-07-30 15:00:00 29.6 8 Oeste 22 Oeste 0 948.7 -1.2 17
2019-07-30 14:00:00 28.3 8 Norte 21 Oeste 0 949.2 -0.8 19
2019-07-30 13:00:00 27.2 9 Norte 21 Norte 0 949.6 -0.4 25
2019-07-30 12:00:00 26.1 12 Norte 21 Norte 0 949.9 0.1 27
2019-07-30 11:00:00 24.2 13 Norte 24 Nordeste 0 950 0.9 30
2019-07-30 10:00:00 22.5 12 Norte 22 Norte 0 950 1.3 33
2019-07-30 09:00:00 20.2 4 Nordeste 11 Nordeste 0 949.8 1.4 36
2019-07-30 08:00:00 16.4 4 Este 9 Nordeste 0 949.1 1.2 42
2019-07-30 07:00:00 16.5 0 Calma 9 Nordeste 0 948.7 1 42
2019-07-30 06:00:00 16.5 3 Este -- -- 0 948.4 1.1 41
2019-07-30 05:00:00 18 6 Este 9 Este 0 947.9 0.9 37
2019-07-30 04:00:00 18.4 5 Este 9 Este 0 947.7 1.1 37
2019-07-30 03:00:00 20.1 0 Calma 9 Este 0 947.3 1.1 33
2019-07-30 02:00:00 21.8 5 Este 9 Este 0 947 1.3 30
2019-07-30 01:00:00 22.3 7 Este 15 Oeste 0 946.6 2 30
2019-07-30 00:00:00 25.7 12 Oeste 22 Oeste 0 946.2 2.4 25
2019-07-29 23:00:00 26.9 15 Oeste 24 Oeste 0 945.7 2.6 23
2019-07-29 22:00:00 28.3 15 Oeste 35 Oeste 0 944.6 1.6 21
2019-07-29 21:00:00 30.4 25 Oeste 46 Sudoeste 0 943.8 0.6 23
2019-07-29 20:00:00 32.1 28 Sudoeste 45 Sudoeste 0 943.1 -0.4 20
2019-07-29 19:00:00 33 29 Sudoeste 46 Sur 0 943 -0.7 17
2019-07-29 18:00:00 33.3 25 Sudoeste 48 Sudoeste 0 943.2 -0.9 15
2019-07-29 17:00:00 33.5 28 Sudoeste 55 Sudoeste 0 943.5 -1 12
2019-07-29 16:00:00 33.1 26 Sudoeste 54 Sudoeste 0 943.7 -1.2 13
2019-07-29 15:00:00 32.6 19 Sudoeste 41 Sudoeste 0 944.1 -1.1 20
2019-07-29 14:00:00 31.5 19 Sudoeste 41 Sudoeste 0 944.5 -0.9 24
2019-07-29 13:00:00 30.7 14 Sudoeste 37 Sudoeste 0 944.9 -0.6 24
2019-07-29 12:00:00 29 6 Sudeste 18 Sudoeste 0 945.2 -0.1 22
2019-07-29 11:00:00 25.6 6 Sur 15 Sudoeste 0 945.4 0.5 26
2019-07-29 10:00:00 23.3 5 Norte 11 Norte 0 945.5 0.8 29
2019-07-29 09:00:00 20.3 9 Norte 13 Norte 0 945.3 1 33
2019-07-29 08:00:00 16.4 6 Norte 9 Norte 0 944.9 0.7 39
2019-07-29 07:00:00 17.1 6 Norte 15 Noroeste 0 944.7 0.8 36
2019-07-29 06:00:00 17.8 7 Norte 9 Noroeste 0 944.3 0.3 36
2019-07-29 05:00:00 19 6 Norte 15 Noroeste 0 944.2 0.3 34
2019-07-29 04:00:00 20.7 7 Norte 18 Noroeste 0 943.9 0.4 30
2019-07-29 03:00:00 21.5 13 Noroeste 15 Noroeste 0 944 0.3 31
2019-07-29 02:00:00 22.5 7 Norte 18 Oeste 0 943.9 0.2 37
2019-07-29 01:00:00 26.8 12 Sudoeste 22 Sudoeste 0 943.5 0.3 29
2019-07-29 00:00:00 24.7 8 Sur 15 Sudoeste 0 943.7 1 32
2019-07-28 23:00:00 27.4 11 Sur 24 Sur 0 943.7 1.2 26
2019-07-28 22:00:00 28.1 13 Sur 28 Sur 0 943.2 0.7 25
2019-07-28 21:00:00 29.5 14 Sur 32 Sur 0 942.7 0 25
2019-07-28 20:00:00 30.3 16 Sur 26 Sur 0 942.5 -0.7 24
2019-07-28 19:00:00 30.6 13 Sudoeste 52 Sur 0 942.5 -1.4 24
2019-07-28 18:00:00 30.2 10 Sudeste 33 Sudoeste 0 942.7 -1.7 24
2019-07-28 17:00:00 29.9 10 Sudeste 33 Sudoeste 0 943.2 -1.8 25
2019-07-28 16:00:00 29.1 9 Sur 26 Sur 0 943.9 -1.7 26
2019-07-28 15:00:00 28.1 8 Sur 18 Sur 0 944.4 -1.7 28
2019-07-28 14:00:00 26.4 8 Noroeste 22 Sur 0 945 -1.4 31
2019-07-28 13:00:00 24.9 5 Oeste 15 Norte 0 945.6 -1.3 33
2019-07-28 12:00:00 23.4 10 Norte 18 Oeste 0 946.1 -0.6 37
2019-07-28 11:00:00 21.8 8 Norte 17 Nordeste 0 946.4 -0.1 41
2019-07-28 10:00:00 19.9 6 Nordeste 15 Este 0 946.9 0.7 47
2019-07-28 09:00:00 17.7 8 Norte 15 Norte 0 946.7 0.8 55
2019-07-28 08:00:00 15.2 9 Noroeste 11 Noroeste 0 946.5 0.8 64
2019-07-28 07:00:00 14.9 7 Norte 13 Norte 0 946.2 0.5 65
2019-07-28 06:00:00 15.6 8 Nordeste 13 Este 0 945.9 0.5 62
2019-07-28 05:00:00 16.5 8 Nordeste 18 Norte 0 945.7 0.6 60
2019-07-28 04:00:00 17.5 9 Nordeste 22 Norte 0 945.7 0.9 58
2019-07-28 03:00:00 18.6 6 Nordeste 15 Norte 0 945.4 1.1 57
2019-07-28 02:00:00 19.2 6 Nordeste 13 Este 0 945.1 1.2 56
2019-07-28 01:00:00 20.4 12 Norte 30 Norte 0 944.8 1.8 55
2019-07-28 00:00:00 21.4 21 Norte 30 Norte 0 944.3 2.2 50
2019-07-27 23:00:00 23.3 16 Norte 30 Noroeste 0 943.9 2.5 39
2019-07-26 12:00:00 28.6 23 Sudoeste 42 Sudoeste 0 945.3 0 40
2019-07-26 11:00:00 27.3 19 Sudoeste 41 Sudoeste 0 945.4 0.4 44
2019-07-26 10:00:00 26.6 13 Sudoeste 26 Sudoeste 0 945.5 0.7 45
2019-07-26 09:00:00 25 16 Sudoeste 32 Sudoeste 0 945.3 0.5 49
2019-07-26 08:00:00 25.2 13 Oeste 32 Sudoeste 0 945 -0.2 45
2019-07-26 07:00:00 25.6 16 Sudoeste 26 Sudoeste 0 944.8 -0.5 44
2019-07-26 06:00:00 26.2 6 Noroeste 22 Sudoeste 0 944.8 -0.4 38
2019-07-26 05:00:00 25.8 7 Nordeste 28 Sudoeste 0 945.2 -0.2 35
2019-07-26 04:00:00 27.1 18 Sudoeste 28 Sudoeste 0 945.3 -0.1 31
2019-07-26 03:00:00 27.4 10 Sur 15 Sur 0 945.2 -0.2 29
2019-07-26 02:00:00 28.1 13 Sur 17 Sur 0 945.4 0.1 28
2019-07-26 01:00:00 27.7 9 Sur 13 Sudoeste 0 945.4 0.4 28
2019-07-26 00:00:00 30.1 9 Sudoeste 15 Oeste 0 945.4 0.9 23